Terminal Aerodrome Forecast
Issued by NWS

Home | Current Version | Previous Version | Text Only | Print | Product List | Glossary On
Versions: 1 2 3 4 5 6 7 8 9 10 11 12 13 14 15 16 17 18
522
FTUS43 KAPX 310520
TAFPLN
TAF
KPLN 310520Z 3106/0106 31004KT P6SM SKC
     FM311700 06006KT P6SM SCT250
     FM312200 09007KT P6SM SCT250
     FM010200 12004KT P6SM BKN250=

USA.gov is the U.S. government's official web portal to all federal, state and local government web resources and services.